createdAt,value
2019-01-12T00:00:57.079Z,89.08
2019-01-12T00:04:10.757Z,89.42
2019-01-12T00:07:24.329Z,89.31
2019-01-12T00:10:37.803Z,89.27
2019-01-12T00:13:51.591Z,89.01
2019-01-12T00:17:05.371Z,89.21
2019-01-12T00:20:18.853Z,89.46
2019-01-12T00:23:32.423Z,89.54
2019-01-12T00:26:45.878Z,89.45
2019-01-12T00:29:59.359Z,89.23
2019-01-12T00:33:12.843Z,89.19
2019-01-12T00:36:26.641Z,89.49
2019-01-12T00:39:40.115Z,89.34
2019-01-12T00:42:53.795Z,89.46
2019-01-12T00:46:07.252Z,89.59
2019-01-12T00:49:20.833Z,89.65
2019-01-12T00:52:34.298Z,89.75
2019-01-12T00:55:48.215Z,89.76
2019-01-12T00:59:01.792Z,90.07
2019-01-12T01:02:15.355Z,90.32
2019-01-12T01:05:28.824Z,90.67
2019-01-12T01:08:42.305Z,90.73
2019-01-12T01:11:55.867Z,90.70
2019-01-12T01:15:10.032Z,90.53
2019-01-12T01:18:24.647Z,90.26
2019-01-12T01:21:38.217Z,90.00
2019-01-12T01:24:51.693Z,89.50
2019-01-12T01:28:05.182Z,89.62
2019-01-12T01:31:18.766Z,90.12
2019-01-12T01:34:32.239Z,89.73
2019-01-12T01:37:46.010Z,89.63
2019-01-12T01:40:59.482Z,89.42
2019-01-12T01:44:12.951Z,89.29
2019-01-12T01:47:26.614Z,89.01
2019-01-12T01:50:40.196Z,89.43
2019-01-12T01:53:53.671Z,89.41
2019-01-12T01:57:07.127Z,89.67
2019-01-12T02:00:20.896Z,89.58
2019-01-12T02:03:34.610Z,89.20
2019-01-12T02:06:48.430Z,89.04
2019-01-12T02:10:02.438Z,88.81
2019-01-12T02:13:15.899Z,88.93
2019-01-12T02:16:29.370Z,89.03
2019-01-12T02:19:43.147Z,89.03
2019-01-12T02:22:56.711Z,88.65
2019-01-12T02:26:10.179Z,88.90
2019-01-12T02:29:23.770Z,88.80
2019-01-12T02:32:37.227Z,88.79
2019-01-12T02:35:50.720Z,88.96
2019-01-12T02:39:05.906Z,88.89
2019-01-12T02:42:19.373Z,88.98
2019-01-12T02:45:32.955Z,89.66
2019-01-12T02:48:46.415Z,89.94
2019-01-12T02:51:59.895Z,90.13
2019-01-12T02:55:14.078Z,90.10
2019-01-12T02:58:30.643Z,90.23
2019-01-12T03:01:44.119Z,89.81
2019-01-12T03:04:57.996Z,89.40
2019-01-12T03:08:11.456Z,89.26
2019-01-12T03:11:24.932Z,89.02
2019-01-12T03:14:38.404Z,88.84
2019-01-12T03:17:51.864Z,88.80
2019-01-12T03:21:05.742Z,89.05
2019-01-12T03:24:19.755Z,88.82
2019-01-12T03:27:33.467Z,88.96
2019-01-12T03:30:46.936Z,88.90
2019-01-12T03:34:00.496Z,88.80
2019-01-12T03:37:14.071Z,88.54
2019-01-12T03:40:27.651Z,88.37
2019-01-12T03:43:41.135Z,88.40
2019-01-12T03:46:54.846Z,88.62
2019-01-12T03:50:09.876Z,88.91
2019-01-12T03:53:23.341Z,89.08
2019-01-12T03:56:37.241Z,89.30
2019-01-12T03:59:50.802Z,89.15
2019-01-12T04:03:04.377Z,89.38
2019-01-12T04:06:18.267Z,89.32
2019-01-12T04:09:31.727Z,89.01
2019-01-12T04:12:46.006Z,89.07
2019-01-12T04:15:59.575Z,88.90
2019-01-12T04:19:13.033Z,88.75
2019-01-12T04:22:26.508Z,88.46
2019-01-12T04:25:40.317Z,88.39
2019-01-12T04:28:54.070Z,88.17
2019-01-12T04:32:07.646Z,88.10
2019-01-12T04:35:21.142Z,88.12
2019-01-12T04:38:34.918Z,88.28
2019-01-12T04:41:48.596Z,88.21
2019-01-12T04:45:02.479Z,87.88
2019-01-12T04:48:15.953Z,87.95
2019-01-12T04:51:29.978Z,87.79
2019-01-12T04:54:43.441Z,87.91
2019-01-12T04:57:56.903Z,87.87
2019-01-12T05:01:10.387Z,87.88
2019-01-12T05:04:23.852Z,88.19
2019-01-12T05:07:37.324Z,87.87
2019-01-12T05:10:50.803Z,87.59
2019-01-12T05:14:04.255Z,87.68
2019-01-12T05:17:17.721Z,88.30
2019-01-12T05:20:31.284Z,88.21
2019-01-12T05:23:44.755Z,87.71
2019-01-12T05:26:58.245Z,87.45
2019-01-12T05:30:17.366Z,87.39
2019-01-12T05:33:30.908Z,87.29
2019-01-12T05:36:44.678Z,87.65
2019-01-12T05:39:58.130Z,88.32
2019-01-12T05:43:11.595Z,88.71
2019-01-12T05:46:25.070Z,88.80
2019-01-12T05:49:38.535Z,89.03
2019-01-12T05:52:52.115Z,88.74
2019-01-12T05:56:05.779Z,88.82
2019-01-12T05:59:19.549Z,89.03
2019-01-12T06:02:33.281Z,89.04
2019-01-12T06:05:46.744Z,88.91
2019-01-12T06:09:00.210Z,88.47
2019-01-12T06:12:13.679Z,88.45
2019-01-12T06:15:27.411Z,88.37
2019-01-12T06:18:41.126Z,88.37
2019-01-12T06:21:54.694Z,88.21
2019-01-12T06:25:08.658Z,88.08
2019-01-12T06:28:22.136Z,87.96
2019-01-12T06:31:35.996Z,88.15
2019-01-12T06:34:49.450Z,87.86
2019-01-12T06:38:03.627Z,87.61
2019-01-12T06:41:17.123Z,87.58
2019-01-12T06:44:30.586Z,87.29
2019-01-12T06:47:44.255Z,86.85
2019-01-12T06:50:58.079Z,87.34
2019-01-12T06:54:11.552Z,87.28
2019-01-12T06:57:25.032Z,87.11
2019-01-12T07:00:38.499Z,86.75
2019-01-12T07:03:52.639Z,86.64
2019-01-12T07:07:06.224Z,86.77
2019-01-12T07:10:19.698Z,86.78
2019-01-12T07:13:33.279Z,86.88
2019-01-12T07:16:47.096Z,86.99
2019-01-12T07:20:00.972Z,86.90
2019-01-12T07:23:14.543Z,86.93
2019-01-12T07:26:27.994Z,86.95
2019-01-12T07:29:41.463Z,87.60
2019-01-12T07:32:54.938Z,87.18
2019-01-12T07:36:08.402Z,87.18
2019-01-12T07:39:22.215Z,87.10
2019-01-12T07:42:35.692Z,86.97
2019-01-12T07:45:49.405Z,87.01
2019-01-12T07:49:03.228Z,87.56
2019-01-12T07:52:16.701Z,87.75
2019-01-12T07:55:30.171Z,87.80
2019-01-12T07:58:43.664Z,87.69
2019-01-12T08:01:57.458Z,87.53
2019-01-12T08:05:11.342Z,88.09
2019-01-12T08:08:25.033Z,88.55
2019-01-12T08:11:38.486Z,88.50
2019-01-12T08:14:52.078Z,87.89
2019-01-12T08:22:21.126Z,87.31
2019-01-12T08:25:35.100Z,86.97
2019-01-12T08:28:48.944Z,86.09
2019-01-12T08:32:02.826Z,85.57
2019-01-12T08:35:16.712Z,85.95
2019-01-12T08:38:30.501Z,84.97
2019-01-12T08:41:43.976Z,85.11
2019-01-12T08:44:57.451Z,84.41
2019-01-12T08:48:11.339Z,84.18
2019-01-12T08:51:24.909Z,83.63
2019-01-12T08:54:38.657Z,83.39
2019-01-12T08:57:52.950Z,84.03
2019-01-12T09:01:06.653Z,83.44
2019-01-12T09:04:20.290Z,83.34
2019-01-12T09:07:34.425Z,82.57
2019-01-12T09:10:47.893Z,82.80
2019-01-12T09:14:01.505Z,82.37
2019-01-12T09:17:14.983Z,81.95
2019-01-12T09:20:28.673Z,81.93
2019-01-12T09:23:42.169Z,80.62
2019-01-12T09:26:55.891Z,80.49
2019-01-12T09:30:15.143Z,81.04
2019-01-12T09:33:29.026Z,80.84
2019-01-12T09:36:42.605Z,81.06
2019-01-12T09:39:56.155Z,80.17
2019-01-12T09:43:09.756Z,80.58
2019-01-12T09:46:23.969Z,81.30
2019-01-12T09:49:37.485Z,81.00
2019-01-12T09:52:51.734Z,81.21
2019-01-12T09:56:05.557Z,81.77
2019-01-12T09:59:19.144Z,81.95
2019-01-12T10:02:32.954Z,81.55
2019-01-12T10:05:46.890Z,81.23
2019-01-12T10:09:00.623Z,81.75
2019-01-12T10:12:14.089Z,81.18
2019-01-12T10:15:28.086Z,80.62
2019-01-12T10:18:41.910Z,80.09
2019-01-12T10:21:55.635Z,79.36
2019-01-12T10:25:09.574Z,79.67
2019-01-12T10:28:23.281Z,79.72
2019-01-12T10:31:36.891Z,79.75
2019-01-12T10:34:50.552Z,80.18
2019-01-12T10:38:04.320Z,80.48
2019-01-12T10:41:18.059Z,80.35
2019-01-12T10:44:31.766Z,80.73
2019-01-12T10:47:45.891Z,81.52
2019-01-12T10:50:59.618Z,81.19
2019-01-12T10:54:13.219Z,81.37
2019-01-12T10:57:26.752Z,81.84
2019-01-12T11:00:42.034Z,81.57
2019-01-12T11:03:55.623Z,81.55
2019-01-12T11:07:16.938Z,81.25
2019-01-12T11:10:30.977Z,81.08
2019-01-12T11:13:44.460Z,81.51
2019-01-12T11:16:58.146Z,81.83
2019-01-12T11:20:12.114Z,81.63
2019-01-12T11:23:25.633Z,81.28
2019-01-12T11:26:39.471Z,81.52
2019-01-12T11:31:19.622Z,80.98
2019-01-12T11:34:28.363Z,81.05
2019-01-12T11:40:14.275Z,80.14
2019-01-12T11:52:20.328Z,78.38
2019-01-12T11:55:35.586Z,78.50
2019-01-12T11:58:50.802Z,78.28
2019-01-12T12:02:06.406Z,78.45
2019-01-12T12:05:23.814Z,77.68
2019-01-12T12:08:39.880Z,78.34
2019-01-12T12:11:55.457Z,79.20
2019-01-12T12:15:11.398Z,78.13
2019-01-12T12:18:26.857Z,78.35
2019-01-12T12:21:42.289Z,79.06
2019-01-12T12:24:57.764Z,78.67
2019-01-12T12:28:14.976Z,78.69
2019-01-12T12:31:30.538Z,78.53
2019-01-12T12:34:45.889Z,78.74
2019-01-12T12:38:01.318Z,78.25
2019-01-12T12:41:16.789Z,79.09
2019-01-12T12:44:32.263Z,79.25
2019-01-12T12:47:47.686Z,80.16
2019-01-12T12:51:03.849Z,80.24
2019-01-12T12:54:19.922Z,79.48
2019-01-12T12:57:35.429Z,78.94
2019-01-12T13:00:51.471Z,80.05
2019-01-12T13:04:07.111Z,80.63
2019-01-12T13:07:23.169Z,80.36
2019-01-12T13:10:38.440Z,80.29
2019-01-12T13:13:55.106Z,80.26
2019-01-12T13:17:10.673Z,80.58
2019-01-12T13:20:26.161Z,81.02
2019-01-12T13:23:41.239Z,81.38
2019-01-12T13:26:56.847Z,80.77
2019-01-12T13:30:17.649Z,80.50
2019-01-12T13:33:32.972Z,81.39
2019-01-12T13:36:48.265Z,81.41
2019-01-12T13:40:03.045Z,81.24
2019-01-12T13:43:18.630Z,81.30
2019-01-12T13:46:34.005Z,81.81
2019-01-12T13:49:50.148Z,82.10
2019-01-12T13:53:05.410Z,82.39
2019-01-12T13:56:20.637Z,82.51
2019-01-12T13:59:37.001Z,82.89
2019-01-12T14:02:52.503Z,82.64
2019-01-12T14:06:08.901Z,82.67
2019-01-12T14:09:24.449Z,82.45
2019-01-12T14:12:40.784Z,81.98
2019-01-12T14:15:55.935Z,82.24
2019-01-12T14:19:11.296Z,82.72
2019-01-12T14:22:26.667Z,82.45
2019-01-12T14:25:42.273Z,82.42
2019-01-12T14:28:57.837Z,82.28
2019-01-12T14:32:13.201Z,82.44
2019-01-12T14:35:28.676Z,82.42
2019-01-12T14:38:44.070Z,82.29
2019-01-12T14:41:59.216Z,82.57
2019-01-12T14:45:17.509Z,83.18
2019-01-12T14:48:32.748Z,83.22
2019-01-12T14:51:47.894Z,83.40
2019-01-12T14:55:03.547Z,83.88
2019-01-12T14:58:19.154Z,84.05
2019-01-12T15:01:34.385Z,84.59
2019-01-12T15:04:50.052Z,84.76
2019-01-12T15:08:05.984Z,85.37
2019-01-12T15:11:21.559Z,85.65
2019-01-12T15:14:36.777Z,86.11
2019-01-12T15:17:52.349Z,86.53
2019-01-12T15:21:07.606Z,86.17
2019-01-12T15:24:22.881Z,86.63
2019-01-12T15:27:38.501Z,87.45
2019-01-12T15:30:53.882Z,87.45
2019-01-12T15:34:09.325Z,87.55
2019-01-12T15:37:26.482Z,87.90
2019-01-12T15:40:52.429Z,88.18
2019-01-12T15:44:07.631Z,88.58
2019-01-12T15:47:29.520Z,88.94
2019-01-12T15:50:44.840Z,88.70
2019-01-12T15:54:00.336Z,88.82
2019-01-12T15:57:15.539Z,88.85
2019-01-12T16:00:30.821Z,88.52
2019-01-12T16:03:46.629Z,88.22
2019-01-12T16:07:01.695Z,88.79
2019-01-12T16:10:17.059Z,88.43
2019-01-12T16:13:32.369Z,88.48
2019-01-12T16:16:47.552Z,88.77
2019-01-12T16:20:03.016Z,88.78
2019-01-12T16:23:18.463Z,88.17
2019-01-12T16:26:34.021Z,89.27
2019-01-12T16:29:49.094Z,89.10
2019-01-12T16:33:04.510Z,89.07
2019-01-12T16:36:19.772Z,88.52
2019-01-12T16:39:34.961Z,88.67
2019-01-12T16:42:50.378Z,88.32
2019-01-12T16:46:05.698Z,87.80
2019-01-12T16:49:20.797Z,88.40
2019-01-12T16:52:36.123Z,88.54
2019-01-12T16:55:51.374Z,88.75
2019-01-12T16:59:06.653Z,89.05
2019-01-12T17:02:21.990Z,89.00
2019-01-12T17:05:37.165Z,88.94
2019-01-12T17:08:52.657Z,89.15
2019-01-12T17:12:08.046Z,89.04
2019-01-12T17:15:23.035Z,89.08
2019-01-12T17:18:38.170Z,88.90
2019-01-12T17:21:53.592Z,88.98
2019-01-12T17:25:08.942Z,89.00
2019-01-12T17:28:25.908Z,88.97
2019-01-12T17:31:41.128Z,89.11
2019-01-12T17:34:56.634Z,88.72
2019-01-12T17:38:12.198Z,89.42
2019-01-12T17:41:27.601Z,88.97
2019-01-12T17:44:43.120Z,89.74
2019-01-12T17:47:58.246Z,89.65
2019-01-12T17:51:14.222Z,89.33
2019-01-12T17:54:29.584Z,88.89
2019-01-12T17:57:44.821Z,88.85
2019-01-12T18:01:00.283Z,89.06
2019-01-12T18:04:15.533Z,89.46
2019-01-12T18:07:30.891Z,89.52
2019-01-12T18:10:46.047Z,89.43
2019-01-12T18:14:01.296Z,89.47
2019-01-12T18:17:16.535Z,89.85
2019-01-12T18:20:31.812Z,90.11
2019-01-12T18:23:47.084Z,90.29
2019-01-12T18:27:02.506Z,89.91
2019-01-12T18:30:18.070Z,89.81
2019-01-12T18:33:33.612Z,89.80
2019-01-12T18:36:48.919Z,90.09
2019-01-12T18:40:04.613Z,89.81
2019-01-12T18:43:19.984Z,89.97
2019-01-12T18:46:35.123Z,89.91
2019-01-12T18:49:50.200Z,90.26
2019-01-12T18:53:06.207Z,90.20
2019-01-12T18:56:21.487Z,90.30
2019-01-12T18:59:37.040Z,90.19
2019-01-12T19:02:52.496Z,90.26
2019-01-12T19:06:07.965Z,90.30
2019-01-12T19:09:23.320Z,90.08
2019-01-12T19:12:38.750Z,90.43
2019-01-12T19:15:54.310Z,90.17
2019-01-12T19:19:09.806Z,89.96
2019-01-12T19:22:25.323Z,89.98
2019-01-12T19:25:40.692Z,89.60
2019-01-12T19:28:55.942Z,90.15
2019-01-12T19:32:11.294Z,90.14
2019-01-12T19:35:26.537Z,89.94
2019-01-12T19:38:41.839Z,90.07
2019-01-12T19:41:56.960Z,89.53
2019-01-12T19:45:13.412Z,89.62
2019-01-12T19:48:28.588Z,89.51
2019-01-12T19:51:44.043Z,89.07
2019-01-12T19:54:59.314Z,89.03
2019-01-12T19:58:14.956Z,88.95
2019-01-12T20:01:30.690Z,88.92
2019-01-12T20:04:46.081Z,88.79
2019-01-12T20:08:02.104Z,88.98
2019-01-12T20:11:17.372Z,88.49
2019-01-12T20:14:33.501Z,88.56
2019-01-12T20:17:49.103Z,88.46
2019-01-12T20:21:04.271Z,88.53
2019-01-12T20:24:19.913Z,88.68
2019-01-12T20:27:35.369Z,88.27
2019-01-12T20:31:32.465Z,88.62
2019-01-12T20:35:05.220Z,88.15
2019-01-12T20:38:46.971Z,88.30
2019-01-12T20:42:53.830Z,88.16
2019-01-12T20:46:47.722Z,88.47
2019-01-12T20:50:15.326Z,88.72
2019-01-12T20:54:02.239Z,88.83
2019-01-12T20:58:05.189Z,88.63
2019-01-12T21:02:03.764Z,88.06
2019-01-12T21:06:10.923Z,88.12
2019-01-12T21:10:24.921Z,88.42
2019-01-12T21:14:17.232Z,89.00
2019-01-12T21:17:32.909Z,89.33
2019-01-12T21:20:48.194Z,88.81
2019-01-12T21:24:03.513Z,88.72
2019-01-12T21:27:18.666Z,88.97
2019-01-12T21:30:33.899Z,88.80
2019-01-12T21:33:49.583Z,88.71
2019-01-12T21:37:04.740Z,88.60
2019-01-12T21:40:20.065Z,88.60
2019-01-12T21:43:35.423Z,88.35
2019-01-12T21:46:50.612Z,88.34
2019-01-12T21:50:07.519Z,88.15
2019-01-12T21:53:22.731Z,88.55
2019-01-12T21:56:38.163Z,88.75
2019-01-12T21:59:53.422Z,88.61
2019-01-12T22:03:08.703Z,88.44
2019-01-12T22:06:23.690Z,88.29
2019-01-12T22:09:39.065Z,88.45
2019-01-12T22:12:54.530Z,88.75
2019-01-12T22:16:09.996Z,88.85
2019-01-12T22:19:25.327Z,88.99
2019-01-12T22:26:21.531Z,88.82
2019-01-12T22:29:37.082Z,88.58
2019-01-12T22:32:52.586Z,88.56
2019-01-12T22:36:07.590Z,88.59
2019-01-12T22:39:22.729Z,88.58
2019-01-12T22:42:37.978Z,88.38
2019-01-12T22:45:53.443Z,88.46
2019-01-12T22:49:09.002Z,88.30
2019-01-12T22:52:24.078Z,88.31
2019-01-12T22:55:40.302Z,88.55
2019-01-12T22:58:55.857Z,88.42
2019-01-12T23:05:33.272Z,88.27
2019-01-12T23:08:48.528Z,87.96
2019-01-12T23:12:04.011Z,88.32
2019-01-12T23:15:19.556Z,88.28
2019-01-12T23:18:35.205Z,88.60
2019-01-12T23:21:50.420Z,88.68
2019-01-12T23:25:05.699Z,88.60
2019-01-12T23:28:21.052Z,88.49
2019-01-12T23:31:36.594Z,88.55
2019-01-12T23:34:52.071Z,88.08
2019-01-12T23:38:07.820Z,88.13
2019-01-12T23:41:22.958Z,87.67
2019-01-12T23:44:38.448Z,87.21
2019-01-12T23:47:54.086Z,87.10
2019-01-12T23:51:09.650Z,86.77
2019-01-12T23:54:25.041Z,86.63
2019-01-12T23:57:40.654Z,86.30
